sensor_id;sensor_type;location;lat;lon;timestamp;P1;durP1;ratioP1;P2;durP2;ratioP2
22955;SDS011;40888;48.148;11.526;2022-08-03T00:00:14;2.92;;;1.63;;
22955;SDS011;40888;48.148;11.526;2022-08-03T00:02:40;3.60;;;2.15;;
22955;SDS011;40888;48.148;11.526;2022-08-03T00:05:06;3.72;;;2.00;;
22955;SDS011;40888;48.148;11.526;2022-08-03T00:07:33;2.33;;;1.80;;
22955;SDS011;40888;48.148;11.526;2022-08-03T00:09:59;2.30;;;2.10;;
22955;SDS011;40888;48.148;11.526;2022-08-03T00:12:25;3.22;;;2.03;;
22955;SDS011;40888;48.148;11.526;2022-08-03T00:14:51;1.98;;;1.77;;
22955;SDS011;40888;48.148;11.526;2022-08-03T00:17:18;3.88;;;2.30;;
22955;SDS011;40888;48.148;11.526;2022-08-03T00:19:44;1.80;;;1.70;;
22955;SDS011;40888;48.148;11.526;2022-08-03T00:22:10;1.98;;;1.83;;
22955;SDS011;40888;48.148;11.526;2022-08-03T00:24:37;2.53;;;1.55;;
22955;SDS011;40888;48.148;11.526;2022-08-03T00:27:03;2.70;;;1.70;;
22955;SDS011;40888;48.148;11.526;2022-08-03T00:29:29;2.40;;;1.45;;
22955;SDS011;40888;48.148;11.526;2022-08-03T00:31:55;3.42;;;1.70;;
22955;SDS011;40888;48.148;11.526;2022-08-03T00:34:21;2.10;;;1.48;;
22955;SDS011;40888;48.148;11.526;2022-08-03T00:36:47;1.60;;;1.50;;
22955;SDS011;40888;48.148;11.526;2022-08-03T00:39:14;1.45;;;1.35;;
22955;SDS011;40888;48.148;11.526;2022-08-03T00:41:40;2.65;;;1.70;;
22955;SDS011;40888;48.148;11.526;2022-08-03T00:44:06;1.45;;;1.35;;
22955;SDS011;40888;48.148;11.526;2022-08-03T00:46:32;1.40;;;1.30;;
22955;SDS011;40888;48.148;11.526;2022-08-03T00:48:58;1.17;;;1.13;;
22955;SDS011;40888;48.148;11.526;2022-08-03T00:51:25;2.15;;;1.65;;
22955;SDS011;40888;48.148;11.526;2022-08-03T00:53:51;1.60;;;1.50;;
22955;SDS011;40888;48.148;11.526;2022-08-03T00:56:17;4.25;;;1.50;;
22955;SDS011;40888;48.148;11.526;2022-08-03T00:58:44;2.25;;;1.40;;
22955;SDS011;40888;48.148;11.526;2022-08-03T01:01:10;2.05;;;1.95;;
22955;SDS011;40888;48.148;11.526;2022-08-03T01:03:37;1.45;;;1.33;;
22955;SDS011;40888;48.148;11.526;2022-08-03T01:06:06;1.30;;;1.20;;
22955;SDS011;40888;48.148;11.526;2022-08-03T01:08:43;2.03;;;1.20;;
22955;SDS011;40888;48.148;11.526;2022-08-03T01:11:16;1.42;;;1.33;;
22955;SDS011;40888;48.148;11.526;2022-08-03T01:13:47;1.30;;;1.20;;
22955;SDS011;40888;48.148;11.526;2022-08-03T01:16:19;1.42;;;1.33;;
22955;SDS011;40888;48.148;11.526;2022-08-03T01:21:25;2.55;;;1.50;;
22955;SDS011;40888;48.148;11.526;2022-08-03T01:26:26;1.10;;;1.00;;
22955;SDS011;40888;48.148;11.526;2022-08-03T01:29:20;1.45;;;1.35;;
22955;SDS011;40888;48.148;11.526;2022-08-03T01:31:52;1.50;;;1.40;;
22955;SDS011;40888;48.148;11.526;2022-08-03T01:34:22;1.48;;;1.35;;
22955;SDS011;40888;48.148;11.526;2022-08-03T01:36:51;1.40;;;1.30;;
22955;SDS011;40888;48.148;11.526;2022-08-03T01:39:18;1.73;;;1.10;;
22955;SDS011;40888;48.148;11.526;2022-08-03T01:41:50;1.83;;;1.30;;
22955;SDS011;40888;48.148;11.526;2022-08-03T01:44:18;1.70;;;1.60;;
22955;SDS011;40888;48.148;11.526;2022-08-03T01:46:45;2.42;;;1.10;;
22955;SDS011;40888;48.148;11.526;2022-08-03T01:49:14;1.40;;;1.30;;
22955;SDS011;40888;48.148;11.526;2022-08-03T01:51:41;2.15;;;1.35;;
22955;SDS011;40888;48.148;11.526;2022-08-03T01:54:09;1.33;;;1.23;;
22955;SDS011;40888;48.148;11.526;2022-08-03T01:56:35;1.33;;;1.23;;
22955;SDS011;40888;48.148;11.526;2022-08-03T01:59:02;1.30;;;1.20;;
22955;SDS011;40888;48.148;11.526;2022-08-03T02:01:29;3.42;;;1.10;;
22955;SDS011;40888;48.148;11.526;2022-08-03T02:03:56;2.90;;;1.55;;
22955;SDS011;40888;48.148;11.526;2022-08-03T02:06:24;2.05;;;1.58;;
22955;SDS011;40888;48.148;11.526;2022-08-03T02:08:51;1.60;;;1.50;;
22955;SDS011;40888;48.148;11.526;2022-08-03T02:11:18;1.65;;;1.40;;
22955;SDS011;40888;48.148;11.526;2022-08-03T02:13:44;1.85;;;1.27;;
22955;SDS011;40888;48.148;11.526;2022-08-03T02:16:12;1.30;;;1.20;;
22955;SDS011;40888;48.148;11.526;2022-08-03T02:18:39;1.58;;;1.48;;
22955;SDS011;40888;48.148;11.526;2022-08-03T02:21:05;2.53;;;1.30;;
22955;SDS011;40888;48.148;11.526;2022-08-03T02:23:32;1.95;;;1.45;;
22955;SDS011;40888;48.148;11.526;2022-08-03T02:25:59;1.95;;;1.17;;
22955;SDS011;40888;48.148;11.526;2022-08-03T02:28:29;1.50;;;1.40;;
22955;SDS011;40888;48.148;11.526;2022-08-03T02:30:57;3.25;;;1.42;;
22955;SDS011;40888;48.148;11.526;2022-08-03T02:33:24;1.90;;;1.50;;
22955;SDS011;40888;48.148;11.526;2022-08-03T02:35:51;2.67;;;1.48;;
22955;SDS011;40888;48.148;11.526;2022-08-03T02:38:19;3.22;;;1.30;;
22955;SDS011;40888;48.148;11.526;2022-08-03T02:40:46;1.63;;;1.52;;
22955;SDS011;40888;48.148;11.526;2022-08-03T02:43:16;1.58;;;1.48;;
22955;SDS011;40888;48.148;11.526;2022-08-03T02:45:43;1.38;;;1.20;;
22955;SDS011;40888;48.148;11.526;2022-08-03T02:48:10;1.33;;;1.23;;
22955;SDS011;40888;48.148;11.526;2022-08-03T02:50:37;1.60;;;1.50;;
22955;SDS011;40888;48.148;11.526;2022-08-03T02:53:04;1.35;;;1.25;;
22955;SDS011;40888;48.148;11.526;2022-08-03T02:55:32;1.63;;;1.52;;
22955;SDS011;40888;48.148;11.526;2022-08-03T02:57:59;1.40;;;1.30;;
22955;SDS011;40888;48.148;11.526;2022-08-03T03:00:26;2.58;;;1.52;;
22955;SDS011;40888;48.148;11.526;2022-08-03T03:02:54;1.70;;;1.48;;
22955;SDS011;40888;48.148;11.526;2022-08-03T03:05:21;1.48;;;1.33;;
22955;SDS011;40888;48.148;11.526;2022-08-03T03:07:47;1.50;;;1.13;;
22955;SDS011;40888;48.148;11.526;2022-08-03T03:10:14;1.13;;;1.08;;
22955;SDS011;40888;48.148;11.526;2022-08-03T03:12:40;1.25;;;1.20;;
22955;SDS011;40888;48.148;11.526;2022-08-03T03:15:07;1.90;;;1.30;;
22955;SDS011;40888;48.148;11.526;2022-08-03T03:17:34;1.92;;;1.20;;
22955;SDS011;40888;48.148;11.526;2022-08-03T03:20:02;2.45;;;1.30;;
22955;SDS011;40888;48.148;11.526;2022-08-03T03:22:28;1.40;;;1.30;;
22955;SDS011;40888;48.148;11.526;2022-08-03T03:24:55;1.67;;;1.58;;
22955;SDS011;40888;48.148;11.526;2022-08-03T03:27:22;1.63;;;1.52;;
22955;SDS011;40888;48.148;11.526;2022-08-03T03:29:48;1.30;;;1.20;;
22955;SDS011;40888;48.148;11.526;2022-08-03T03:32:14;1.85;;;1.30;;
22955;SDS011;40888;48.148;11.526;2022-08-03T03:34:41;1.80;;;1.70;;
22955;SDS011;40888;48.148;11.526;2022-08-03T03:37:07;1.48;;;1.38;;
22955;SDS011;40888;48.148;11.526;2022-08-03T03:39:33;3.85;;;1.65;;
22955;SDS011;40888;48.148;11.526;2022-08-03T03:42:00;1.70;;;1.60;;
22955;SDS011;40888;48.148;11.526;2022-08-03T03:44:27;1.75;;;1.65;;
22955;SDS011;40888;48.148;11.526;2022-08-03T03:46:55;1.58;;;1.48;;
22955;SDS011;40888;48.148;11.526;2022-08-03T03:49:22;2.47;;;1.60;;
22955;SDS011;40888;48.148;11.526;2022-08-03T03:51:51;1.67;;;1.52;;
22955;SDS011;40888;48.148;11.526;2022-08-03T03:54:17;1.50;;;1.40;;
22955;SDS011;40888;48.148;11.526;2022-08-03T03:56:44;2.35;;;1.75;;
22955;SDS011;40888;48.148;11.526;2022-08-03T03:59:10;1.58;;;1.48;;
22955;SDS011;40888;48.148;11.526;2022-08-03T04:01:37;1.60;;;1.50;;
22955;SDS011;40888;48.148;11.526;2022-08-03T04:04:03;1.60;;;1.50;;
22955;SDS011;40888;48.148;11.526;2022-08-03T04:06:48;1.67;;;1.50;;
22955;SDS011;40888;48.148;11.526;2022-08-03T04:09:34;2.28;;;1.60;;
22955;SDS011;40888;48.148;11.526;2022-08-03T04:12:19;2.78;;;1.67;;
22955;SDS011;40888;48.148;11.526;2022-08-03T04:14:46;1.50;;;1.40;;
22955;SDS011;40888;48.148;11.526;2022-08-03T04:17:14;1.58;;;1.33;;
22955;SDS011;40888;48.148;11.526;2022-08-03T04:19:42;1.70;;;1.60;;
22955;SDS011;40888;48.148;11.526;2022-08-03T04:22:10;1.98;;;1.60;;
22955;SDS011;40888;48.148;11.526;2022-08-03T04:24:38;2.13;;;1.33;;
22955;SDS011;40888;48.148;11.526;2022-08-03T04:27:05;2.08;;;1.85;;
22955;SDS011;40888;48.148;11.526;2022-08-03T04:29:32;1.67;;;1.27;;
22955;SDS011;40888;48.148;11.526;2022-08-03T04:31:59;1.40;;;1.30;;
22955;SDS011;40888;48.148;11.526;2022-08-03T04:34:26;1.98;;;1.20;;
22955;SDS011;40888;48.148;11.526;2022-08-03T04:36:55;1.45;;;1.30;;
22955;SDS011;40888;48.148;11.526;2022-08-03T04:39:23;2.17;;;1.98;;
22955;SDS011;40888;48.148;11.526;2022-08-03T04:41:54;3.63;;;1.77;;
22955;SDS011;40888;48.148;11.526;2022-08-03T04:44:23;2.35;;;1.40;;
22955;SDS011;40888;48.148;11.526;2022-08-03T04:46:49;2.67;;;1.83;;
22955;SDS011;40888;48.148;11.526;2022-08-03T04:49:15;3.20;;;1.58;;
22955;SDS011;40888;48.148;11.526;2022-08-03T04:51:42;4.72;;;1.98;;
22955;SDS011;40888;48.148;11.526;2022-08-03T04:54:12;2.67;;;1.95;;
22955;SDS011;40888;48.148;11.526;2022-08-03T04:56:38;1.92;;;1.70;;
22955;SDS011;40888;48.148;11.526;2022-08-03T04:59:06;2.20;;;2.00;;
22955;SDS011;40888;48.148;11.526;2022-08-03T05:01:32;2.60;;;2.40;;
22955;SDS011;40888;48.148;11.526;2022-08-03T05:03:58;3.20;;;2.30;;
22955;SDS011;40888;48.148;11.526;2022-08-03T05:06:24;3.30;;;2.42;;
22955;SDS011;40888;48.148;11.526;2022-08-03T05:08:50;5.05;;;2.55;;
22955;SDS011;40888;48.148;11.526;2022-08-03T05:11:17;4.22;;;2.60;;
22955;SDS011;40888;48.148;11.526;2022-08-03T05:13:43;3.78;;;2.40;;
22955;SDS011;40888;48.148;11.526;2022-08-03T05:16:10;15.27;;;2.50;;
22955;SDS011;40888;48.148;11.526;2022-08-03T05:18:36;2.30;;;2.10;;
22955;SDS011;40888;48.148;11.526;2022-08-03T05:21:03;2.53;;;1.90;;
22955;SDS011;40888;48.148;11.526;2022-08-03T05:23:29;2.58;;;1.80;;
22955;SDS011;40888;48.148;11.526;2022-08-03T05:25:55;4.30;;;2.03;;
22955;SDS011;40888;48.148;11.526;2022-08-03T05:28:21;7.55;;;2.10;;
22955;SDS011;40888;48.148;11.526;2022-08-03T05:30:48;4.57;;;3.40;;
22955;SDS011;40888;48.148;11.526;2022-08-03T05:33:14;4.03;;;2.10;;
22955;SDS011;40888;48.148;11.526;2022-08-03T05:35:40;3.50;;;2.05;;
22955;SDS011;40888;48.148;11.526;2022-08-03T05:38:06;4.38;;;2.10;;
22955;SDS011;40888;48.148;11.526;2022-08-03T05:40:32;2.38;;;2.00;;
22955;SDS011;40888;48.148;11.526;2022-08-03T05:42:59;4.72;;;1.85;;
22955;SDS011;40888;48.148;11.526;2022-08-03T05:45:26;4.00;;;2.10;;
22955;SDS011;40888;48.148;11.526;2022-08-03T05:47:52;2.90;;;2.25;;
22955;SDS011;40888;48.148;11.526;2022-08-03T05:50:18;2.75;;;2.08;;
22955;SDS011;40888;48.148;11.526;2022-08-03T05:52:44;4.82;;;2.05;;
22955;SDS011;40888;48.148;11.526;2022-08-03T05:55:11;3.45;;;2.10;;
22955;SDS011;40888;48.148;11.526;2022-08-03T05:57:38;3.47;;;2.10;;
22955;SDS011;40888;48.148;11.526;2022-08-03T06:00:07;2.80;;;2.50;;
22955;SDS011;40888;48.148;11.526;2022-08-03T06:02:34;3.85;;;2.28;;
22955;SDS011;40888;48.148;11.526;2022-08-03T06:05:00;3.25;;;2.10;;
22955;SDS011;40888;48.148;11.526;2022-08-03T06:07:26;2.78;;;2.05;;
22955;SDS011;40888;48.148;11.526;2022-08-03T06:09:53;2.95;;;2.50;;
22955;SDS011;40888;48.148;11.526;2022-08-03T06:12:19;4.10;;;2.30;;
22955;SDS011;40888;48.148;11.526;2022-08-03T06:14:45;2.47;;;2.03;;
22955;SDS011;40888;48.148;11.526;2022-08-03T06:17:11;2.70;;;2.13;;
22955;SDS011;40888;48.148;11.526;2022-08-03T06:19:38;6.75;;;2.20;;
22955;SDS011;40888;48.148;11.526;2022-08-03T06:22:04;5.35;;;2.58;;
22955;SDS011;40888;48.148;11.526;2022-08-03T06:24:30;3.80;;;2.28;;
22955;SDS011;40888;48.148;11.526;2022-08-03T06:26:57;2.80;;;2.20;;
22955;SDS011;40888;48.148;11.526;2022-08-03T06:29:23;3.42;;;2.30;;
22955;SDS011;40888;48.148;11.526;2022-08-03T06:31:49;2.92;;;2.20;;
22955;SDS011;40888;48.148;11.526;2022-08-03T06:34:15;5.13;;;2.20;;
22955;SDS011;40888;48.148;11.526;2022-08-03T06:36:41;2.10;;;1.90;;
22955;SDS011;40888;48.148;11.526;2022-08-03T06:39:07;3.83;;;1.90;;
22955;SDS011;40888;48.148;11.526;2022-08-03T06:41:34;3.03;;;2.00;;
22955;SDS011;40888;48.148;11.526;2022-08-03T06:44:00;3.90;;;2.20;;
22955;SDS011;40888;48.148;11.526;2022-08-03T06:46:26;4.90;;;2.10;;
22955;SDS011;40888;48.148;11.526;2022-08-03T06:48:52;2.60;;;1.70;;
22955;SDS011;40888;48.148;11.526;2022-08-03T06:51:20;3.50;;;2.08;;
22955;SDS011;40888;48.148;11.526;2022-08-03T06:53:47;3.15;;;1.85;;
22955;SDS011;40888;48.148;11.526;2022-08-03T06:56:14;5.45;;;2.40;;
22955;SDS011;40888;48.148;11.526;2022-08-03T06:58:40;2.78;;;1.80;;
22955;SDS011;40888;48.148;11.526;2022-08-03T07:01:06;2.92;;;2.17;;
22955;SDS011;40888;48.148;11.526;2022-08-03T07:03:32;2.05;;;1.70;;
22955;SDS011;40888;48.148;11.526;2022-08-03T07:05:58;2.20;;;1.67;;
22955;SDS011;40888;48.148;11.526;2022-08-03T07:08:24;2.38;;;1.45;;
22955;SDS011;40888;48.148;11.526;2022-08-03T07:10:51;3.72;;;2.00;;
22955;SDS011;40888;48.148;11.526;2022-08-03T07:13:17;5.70;;;1.70;;
22955;SDS011;40888;48.148;11.526;2022-08-03T07:15:43;5.13;;;1.95;;
22955;SDS011;40888;48.148;11.526;2022-08-03T07:18:09;2.22;;;1.45;;
22955;SDS011;40888;48.148;11.526;2022-08-03T07:20:35;2.00;;;1.80;;
22955;SDS011;40888;48.148;11.526;2022-08-03T07:23:02;1.77;;;1.40;;
22955;SDS011;40888;48.148;11.526;2022-08-03T07:25:28;3.10;;;1.60;;
22955;SDS011;40888;48.148;11.526;2022-08-03T07:27:54;5.30;;;1.70;;
22955;SDS011;40888;48.148;11.526;2022-08-03T07:30:20;1.75;;;1.65;;
22955;SDS011;40888;48.148;11.526;2022-08-03T07:32:46;1.67;;;1.58;;
22955;SDS011;40888;48.148;11.526;2022-08-03T07:35:12;1.73;;;1.63;;
22955;SDS011;40888;48.148;11.526;2022-08-03T07:37:39;2.17;;;1.45;;
22955;SDS011;40888;48.148;11.526;2022-08-03T07:40:05;2.55;;;1.67;;
22955;SDS011;40888;48.148;11.526;2022-08-03T07:42:31;1.80;;;1.70;;
22955;SDS011;40888;48.148;11.526;2022-08-03T07:44:57;1.92;;;1.65;;
22955;SDS011;40888;48.148;11.526;2022-08-03T07:47:25;3.03;;;1.48;;
22955;SDS011;40888;48.148;11.526;2022-08-03T07:49:52;5.95;;;1.52;;
22955;SDS011;40888;48.148;11.526;2022-08-03T07:52:19;5.03;;;1.90;;
22955;SDS011;40888;48.148;11.526;2022-08-03T07:55:04;2.17;;;1.30;;
22955;SDS011;40888;48.148;11.526;2022-08-03T07:57:30;2.25;;;1.65;;
22955;SDS011;40888;48.148;11.526;2022-08-03T07:59:56;2.45;;;1.40;;
22955;SDS011;40888;48.148;11.526;2022-08-03T08:02:23;2.38;;;1.35;;
22955;SDS011;40888;48.148;11.526;2022-08-03T08:04:49;2.33;;;1.65;;
22955;SDS011;40888;48.148;11.526;2022-08-03T08:07:15;3.63;;;1.75;;
22955;SDS011;40888;48.148;11.526;2022-08-03T08:09:42;4.32;;;1.60;;
22955;SDS011;40888;48.148;11.526;2022-08-03T08:12:08;4.50;;;1.73;;
22955;SDS011;40888;48.148;11.526;2022-08-03T08:14:36;4.63;;;1.67;;
22955;SDS011;40888;48.148;11.526;2022-08-03T08:17:03;2.10;;;1.42;;
22955;SDS011;40888;48.148;11.526;2022-08-03T08:19:29;2.20;;;1.77;;
22955;SDS011;40888;48.148;11.526;2022-08-03T08:21:55;3.75;;;1.60;;
22955;SDS011;40888;48.148;11.526;2022-08-03T08:24:21;2.30;;;1.40;;
22955;SDS011;40888;48.148;11.526;2022-08-03T08:26:47;3.85;;;1.63;;
22955;SDS011;40888;48.148;11.526;2022-08-03T08:29:14;2.40;;;1.58;;
22955;SDS011;40888;48.148;11.526;2022-08-03T08:31:40;1.67;;;1.23;;
22955;SDS011;40888;48.148;11.526;2022-08-03T08:34:06;2.13;;;1.33;;
22955;SDS011;40888;48.148;11.526;2022-08-03T08:36:33;2.67;;;1.40;;
22955;SDS011;40888;48.148;11.526;2022-08-03T08:38:59;1.55;;;1.40;;
22955;SDS011;40888;48.148;11.526;2022-08-03T08:41:25;1.58;;;1.48;;
22955;SDS011;40888;48.148;11.526;2022-08-03T08:43:52;3.40;;;1.70;;
22955;SDS011;40888;48.148;11.526;2022-08-03T08:46:19;2.25;;;1.20;;
22955;SDS011;40888;48.148;11.526;2022-08-03T08:48:45;5.28;;;1.40;;
22955;SDS011;40888;48.148;11.526;2022-08-03T08:51:11;3.30;;;1.27;;
22955;SDS011;40888;48.148;11.526;2022-08-03T08:53:40;2.80;;;1.45;;
22955;SDS011;40888;48.148;11.526;2022-08-03T08:56:06;1.50;;;1.40;;
22955;SDS011;40888;48.148;11.526;2022-08-03T08:58:35;2.20;;;1.50;;
22955;SDS011;40888;48.148;11.526;2022-08-03T09:01:02;3.63;;;1.55;;
22955;SDS011;40888;48.148;11.526;2022-08-03T09:03:28;3.53;;;1.30;;
22955;SDS011;40888;48.148;11.526;2022-08-03T09:05:55;1.50;;;1.40;;
22955;SDS011;40888;48.148;11.526;2022-08-03T09:08:21;3.10;;;1.25;;
22955;SDS011;40888;48.148;11.526;2022-08-03T09:10:47;1.40;;;1.20;;
22955;SDS011;40888;48.148;11.526;2022-08-03T09:13:14;1.17;;;1.08;;
22955;SDS011;40888;48.148;11.526;2022-08-03T09:15:40;2.25;;;1.00;;
22955;SDS011;40888;48.148;11.526;2022-08-03T09:18:06;0.90;;;0.90;;
22955;SDS011;40888;48.148;11.526;2022-08-03T09:20:33;1.02;;;1.00;;
22955;SDS011;40888;48.148;11.526;2022-08-03T09:23:05;1.40;;;1.30;;
22955;SDS011;40888;48.148;11.526;2022-08-03T09:25:38;2.10;;;1.27;;
22955;SDS011;40888;48.148;11.526;2022-08-03T09:28:05;1.55;;;1.27;;
22955;SDS011;40888;48.148;11.526;2022-08-03T09:30:32;1.48;;;1.33;;
22955;SDS011;40888;48.148;11.526;2022-08-03T09:32:59;2.13;;;1.00;;
22955;SDS011;40888;48.148;11.526;2022-08-03T09:35:26;1.73;;;1.02;;
22955;SDS011;40888;48.148;11.526;2022-08-03T09:38:12;1.23;;;1.13;;
22955;SDS011;40888;48.148;11.526;2022-08-03T09:40:38;1.10;;;1.00;;
22955;SDS011;40888;48.148;11.526;2022-08-03T09:43:05;1.98;;;1.10;;
22955;SDS011;40888;48.148;11.526;2022-08-03T09:45:35;0.73;;;0.73;;
22955;SDS011;40888;48.148;11.526;2022-08-03T09:50:49;2.25;;;1.20;;
22955;SDS011;40888;48.148;11.526;2022-08-03T09:53:16;1.75;;;1.20;;
22955;SDS011;40888;48.148;11.526;2022-08-03T09:55:56;4.03;;;1.17;;
22955;SDS011;40888;48.148;11.526;2022-08-03T09:58:23;1.02;;;0.90;;
22955;SDS011;40888;48.148;11.526;2022-08-03T10:03:22;1.85;;;1.15;;
22955;SDS011;40888;48.148;11.526;2022-08-03T10:05:48;4.90;;;1.83;;
22955;SDS011;40888;48.148;11.526;2022-08-03T10:08:15;3.40;;;1.30;;
22955;SDS011;40888;48.148;11.526;2022-08-03T10:10:42;1.67;;;1.08;;
22955;SDS011;40888;48.148;11.526;2022-08-03T10:13:17;1.75;;;0.98;;
22955;SDS011;40888;48.148;11.526;2022-08-03T10:15:44;2.70;;;1.10;;
22955;SDS011;40888;48.148;11.526;2022-08-03T10:18:11;1.30;;;1.30;;
22955;SDS011;40888;48.148;11.526;2022-08-03T10:20:42;1.00;;;1.00;;
22955;SDS011;40888;48.148;11.526;2022-08-03T10:23:10;1.10;;;0.93;;
22955;SDS011;40888;48.148;11.526;2022-08-03T10:25:39;1.17;;;1.08;;
22955;SDS011;40888;48.148;11.526;2022-08-03T10:28:08;1.02;;;0.93;;
22955;SDS011;40888;48.148;11.526;2022-08-03T10:30:36;2.20;;;1.25;;
22955;SDS011;40888;48.148;11.526;2022-08-03T10:33:06;0.98;;;0.98;;
22955;SDS011;40888;48.148;11.526;2022-08-03T10:35:34;1.38;;;1.15;;
22955;SDS011;40888;48.148;11.526;2022-08-03T10:38:03;1.75;;;1.10;;
22955;SDS011;40888;48.148;11.526;2022-08-03T10:40:31;1.58;;;1.00;;
22955;SDS011;40888;48.148;11.526;2022-08-03T10:42:59;0.75;;;0.75;;
22955;SDS011;40888;48.148;11.526;2022-08-03T10:45:27;1.50;;;1.40;;
22955;SDS011;40888;48.148;11.526;2022-08-03T10:47:54;1.20;;;1.10;;
22955;SDS011;40888;48.148;11.526;2022-08-03T10:50:24;1.17;;;1.13;;
22955;SDS011;40888;48.148;11.526;2022-08-03T10:52:57;2.47;;;1.40;;
22955;SDS011;40888;48.148;11.526;2022-08-03T10:55:44;0.90;;;0.90;;
22955;SDS011;40888;48.148;11.526;2022-08-03T11:01:02;1.00;;;1.00;;
22955;SDS011;40888;48.148;11.526;2022-08-03T11:03:29;1.33;;;1.00;;
22955;SDS011;40888;48.148;11.526;2022-08-03T11:06:15;1.55;;;1.10;;
22955;SDS011;40888;48.148;11.526;2022-08-03T11:08:43;1.15;;;1.15;;
22955;SDS011;40888;48.148;11.526;2022-08-03T11:16:30;2.10;;;0.90;;
22955;SDS011;40888;48.148;11.526;2022-08-03T11:18:59;1.00;;;1.00;;
22955;SDS011;40888;48.148;11.526;2022-08-03T11:24:31;1.20;;;1.10;;
22955;SDS011;40888;48.148;11.526;2022-08-03T11:27:42;1.02;;;1.02;;
22955;SDS011;40888;48.148;11.526;2022-08-03T11:29:53;1.30;;;1.20;;
22955;SDS011;40888;48.148;11.526;2022-08-03T11:35:56;1.98;;;1.15;;
22955;SDS011;40888;48.148;11.526;2022-08-03T11:43:05;3.80;;;1.30;;
22955;SDS011;40888;48.148;11.526;2022-08-03T11:45:31;3.90;;;1.35;;
22955;SDS011;40888;48.148;11.526;2022-08-03T11:47:59;4.60;;;1.13;;
22955;SDS011;40888;48.148;11.526;2022-08-03T11:50:26;1.00;;;1.00;;
22955;SDS011;40888;48.148;11.526;2022-08-03T11:53:00;1.15;;;1.10;;
22955;SDS011;40888;48.148;11.526;2022-08-03T11:55:29;1.30;;;1.13;;
22955;SDS011;40888;48.148;11.526;2022-08-03T11:57:57;1.52;;;1.17;;
22955;SDS011;40888;48.148;11.526;2022-08-03T12:00:25;1.10;;;1.10;;
22955;SDS011;40888;48.148;11.526;2022-08-03T12:03:03;1.27;;;1.10;;
22955;SDS011;40888;48.148;11.526;2022-08-03T12:05:42;0.90;;;0.90;;
22955;SDS011;40888;48.148;11.526;2022-08-03T12:08:10;1.15;;;1.15;;
22955;SDS011;40888;48.148;11.526;2022-08-03T12:10:37;1.02;;;1.02;;
22955;SDS011;40888;48.148;11.526;2022-08-03T12:13:03;2.05;;;1.40;;
22955;SDS011;40888;48.148;11.526;2022-08-03T12:15:31;0.93;;;0.93;;
22955;SDS011;40888;48.148;11.526;2022-08-03T12:18:01;1.27;;;1.17;;
22955;SDS011;40888;48.148;11.526;2022-08-03T12:20:29;2.85;;;1.00;;
22955;SDS011;40888;48.148;11.526;2022-08-03T12:23:00;1.27;;;1.05;;
22955;SDS011;40888;48.148;11.526;2022-08-03T12:25:27;0.80;;;0.80;;
22955;SDS011;40888;48.148;11.526;2022-08-03T12:27:55;2.70;;;1.25;;
22955;SDS011;40888;48.148;11.526;2022-08-03T12:30:30;1.20;;;1.00;;
22955;SDS011;40888;48.148;11.526;2022-08-03T12:32:56;1.33;;;1.00;;
22955;SDS011;40888;48.148;11.526;2022-08-03T12:35:23;0.90;;;0.90;;
22955;SDS011;40888;48.148;11.526;2022-08-03T12:37:50;0.88;;;0.88;;
22955;SDS011;40888;48.148;11.526;2022-08-03T12:40:25;2.45;;;1.00;;
22955;SDS011;40888;48.148;11.526;2022-08-03T12:42:52;1.27;;;1.10;;
22955;SDS011;40888;48.148;11.526;2022-08-03T12:45:19;1.70;;;0.95;;
22955;SDS011;40888;48.148;11.526;2022-08-03T12:48:07;2.25;;;1.00;;
22955;SDS011;40888;48.148;11.526;2022-08-03T12:50:34;1.60;;;1.50;;
22955;SDS011;40888;48.148;11.526;2022-08-03T12:53:01;1.08;;;1.02;;
22955;SDS011;40888;48.148;11.526;2022-08-03T12:55:28;0.80;;;0.80;;
22955;SDS011;40888;48.148;11.526;2022-08-03T12:58:04;1.02;;;1.00;;
22955;SDS011;40888;48.148;11.526;2022-08-03T13:00:31;1.15;;;1.00;;
22955;SDS011;40888;48.148;11.526;2022-08-03T13:03:06;4.22;;;1.20;;
22955;SDS011;40888;48.148;11.526;2022-08-03T13:05:42;0.88;;;0.88;;
22955;SDS011;40888;48.148;11.526;2022-08-03T13:08:18;1.30;;;1.10;;
22955;SDS011;40888;48.148;11.526;2022-08-03T13:10:44;1.58;;;1.00;;
22955;SDS011;40888;48.148;11.526;2022-08-03T13:13:11;0.95;;;0.95;;
22955;SDS011;40888;48.148;11.526;2022-08-03T13:15:37;1.10;;;0.95;;
22955;SDS011;40888;48.148;11.526;2022-08-03T13:18:03;1.17;;;1.08;;
22955;SDS011;40888;48.148;11.526;2022-08-03T13:20:29;0.85;;;0.85;;
22955;SDS011;40888;48.148;11.526;2022-08-03T13:22:55;1.17;;;1.17;;
22955;SDS011;40888;48.148;11.526;2022-08-03T13:25:22;1.92;;;1.10;;
22955;SDS011;40888;48.148;11.526;2022-08-03T13:27:48;1.38;;;0.98;;
22955;SDS011;40888;48.148;11.526;2022-08-03T13:30:16;0.80;;;0.80;;
22955;SDS011;40888;48.148;11.526;2022-08-03T13:32:43;1.15;;;1.10;;
22955;SDS011;40888;48.148;11.526;2022-08-03T13:35:10;0.90;;;0.90;;
22955;SDS011;40888;48.148;11.526;2022-08-03T13:37:36;1.63;;;0.90;;
22955;SDS011;40888;48.148;11.526;2022-08-03T13:40:04;0.80;;;0.80;;
22955;SDS011;40888;48.148;11.526;2022-08-03T13:42:31;1.13;;;1.00;;
22955;SDS011;40888;48.148;11.526;2022-08-03T13:44:58;1.85;;;1.50;;
22955;SDS011;40888;48.148;11.526;2022-08-03T13:47:25;2.08;;;1.20;;
22955;SDS011;40888;48.148;11.526;2022-08-03T13:49:51;1.90;;;0.90;;
22955;SDS011;40888;48.148;11.526;2022-08-03T13:52:18;2.35;;;1.48;;
22955;SDS011;40888;48.148;11.526;2022-08-03T13:54:44;1.80;;;1.08;;
22955;SDS011;40888;48.148;11.526;2022-08-03T13:57:10;2.25;;;1.05;;
22955;SDS011;40888;48.148;11.526;2022-08-03T13:59:36;1.20;;;1.08;;
22955;SDS011;40888;48.148;11.526;2022-08-03T14:02:03;3.38;;;1.20;;
22955;SDS011;40888;48.148;11.526;2022-08-03T14:04:29;1.20;;;1.10;;
22955;SDS011;40888;48.148;11.526;2022-08-03T14:06:55;1.55;;;1.30;;
22955;SDS011;40888;48.148;11.526;2022-08-03T14:09:21;1.48;;;1.38;;
22955;SDS011;40888;48.148;11.526;2022-08-03T14:11:48;1.75;;;1.20;;
22955;SDS011;40888;48.148;11.526;2022-08-03T14:14:14;1.10;;;1.00;;
22955;SDS011;40888;48.148;11.526;2022-08-03T14:16:40;0.90;;;0.90;;
22955;SDS011;40888;48.148;11.526;2022-08-03T14:19:07;1.45;;;0.98;;
22955;SDS011;40888;48.148;11.526;2022-08-03T14:21:33;2.63;;;1.15;;
22955;SDS011;40888;48.148;11.526;2022-08-03T14:23:59;2.22;;;1.40;;
22955;SDS011;40888;48.148;11.526;2022-08-03T14:26:26;3.38;;;1.20;;
22955;SDS011;40888;48.148;11.526;2022-08-03T14:28:52;2.00;;;1.38;;
22955;SDS011;40888;48.148;11.526;2022-08-03T14:31:18;1.20;;;1.10;;
22955;SDS011;40888;48.148;11.526;2022-08-03T14:33:44;2.55;;;1.30;;
22955;SDS011;40888;48.148;11.526;2022-08-03T14:36:11;1.20;;;1.10;;
22955;SDS011;40888;48.148;11.526;2022-08-03T14:38:37;1.25;;;1.10;;
22955;SDS011;40888;48.148;11.526;2022-08-03T14:41:03;1.08;;;1.00;;
22955;SDS011;40888;48.148;11.526;2022-08-03T14:43:29;2.28;;;1.20;;
22955;SDS011;40888;48.148;11.526;2022-08-03T14:45:55;1.25;;;1.15;;
22955;SDS011;40888;48.148;11.526;2022-08-03T14:48:22;2.35;;;1.20;;
22955;SDS011;40888;48.148;11.526;2022-08-03T14:50:49;2.40;;;1.25;;
22955;SDS011;40888;48.148;11.526;2022-08-03T14:53:18;1.27;;;1.05;;
22955;SDS011;40888;48.148;11.526;2022-08-03T14:55:44;2.47;;;1.30;;
22955;SDS011;40888;48.148;11.526;2022-08-03T14:58:13;2.78;;;0.98;;
22955;SDS011;40888;48.148;11.526;2022-08-03T15:00:39;1.38;;;1.27;;
22955;SDS011;40888;48.148;11.526;2022-08-03T15:03:05;1.63;;;1.00;;
22955;SDS011;40888;48.148;11.526;2022-08-03T15:05:31;1.42;;;0.90;;